sensor_id;sensor_type;location;lat;lon;timestamp;pressure;altitude;pressure_sealevel;temperature;humidity
12791;BME280;6459;42.678;23.310;2022-08-03T00:00:37;53846.16;;;-144.00;52.22
12791;BME280;6459;42.678;23.310;2022-08-03T00:03:06;53874.06;;;-144.00;52.17
12791;BME280;6459;42.678;23.310;2022-08-03T00:05:35;53858.13;;;-144.00;52.24
12791;BME280;6459;42.678;23.310;2022-08-03T00:08:04;53882.03;;;-144.00;52.54
12791;BME280;6459;42.678;23.310;2022-08-03T00:10:32;53874.06;;;-144.00;51.77
12791;BME280;6459;42.678;23.310;2022-08-03T00:13:02;53890.00;;;-144.00;51.46
12791;BME280;6459;42.678;23.310;2022-08-03T00:15:31;53897.97;;;-144.00;51.81
12791;BME280;6459;42.678;23.310;2022-08-03T00:17:59;53862.09;;;-144.00;51.98
12791;BME280;6459;42.678;23.310;2022-08-03T00:20:28;53929.84;;;-144.00;52.35
12791;BME280;6459;42.678;23.310;2022-08-03T00:23:03;53890.00;;;-144.00;52.76
12791;BME280;6459;42.678;23.310;2022-08-03T00:25:33;53893.97;;;-144.00;53.06
12791;BME280;6459;42.678;23.310;2022-08-03T00:28:04;53941.78;;;-144.00;53.32
12791;BME280;6459;42.678;23.310;2022-08-03T00:30:34;53876.03;;;-144.00;53.37
12791;BME280;6459;42.678;23.310;2022-08-03T00:33:03;53895.97;;;-144.00;53.07
12791;BME280;6459;42.678;23.310;2022-08-03T00:35:33;53893.97;;;-144.00;53.01
12791;BME280;6459;42.678;23.310;2022-08-03T00:38:16;53933.81;;;-144.00;53.13
12791;BME280;6459;42.678;23.310;2022-08-03T00:40:45;53886.00;;;-144.00;53.10
12791;BME280;6459;42.678;23.310;2022-08-03T00:43:15;53945.78;;;-144.00;53.28
12791;BME280;6459;42.678;23.310;2022-08-03T00:48:50;53921.88;;;-144.00;53.81
12791;BME280;6459;42.678;23.310;2022-08-03T00:51:19;53907.91;;;-144.00;53.90
12791;BME280;6459;42.678;23.310;2022-08-03T00:53:48;53913.91;;;-144.00;53.80
12791;BME280;6459;42.678;23.310;2022-08-03T00:56:17;53911.91;;;-144.00;53.87
12791;BME280;6459;42.678;23.310;2022-08-03T00:58:50;53899.94;;;-144.00;53.74
12791;BME280;6459;42.678;23.310;2022-08-03T01:01:20;53917.88;;;-144.00;54.00
12791;BME280;6459;42.678;23.310;2022-08-03T01:03:49;53929.84;;;-144.00;53.94
12791;BME280;6459;42.678;23.310;2022-08-03T01:06:20;53891.97;;;-144.00;53.80
12791;BME280;6459;42.678;23.310;2022-08-03T01:09:00;53913.91;;;-144.00;53.64
12791;BME280;6459;42.678;23.310;2022-08-03T01:11:35;53923.84;;;-144.00;53.56
12791;BME280;6459;42.678;23.310;2022-08-03T01:14:31;53905.94;;;-144.00;53.54
12791;BME280;6459;42.678;23.310;2022-08-03T01:17:07;53945.78;;;-144.00;53.95
12791;BME280;6459;42.678;23.310;2022-08-03T01:19:45;53941.78;;;-144.00;53.87
12791;BME280;6459;42.678;23.310;2022-08-03T01:25:27;53917.88;;;-144.00;54.37
12791;BME280;6459;42.678;23.310;2022-08-03T01:28:17;53899.94;;;-144.00;54.49
12791;BME280;6459;42.678;23.310;2022-08-03T01:30:49;53935.81;;;-144.00;54.58
12791;BME280;6459;42.678;23.310;2022-08-03T01:33:23;53931.81;;;-144.00;54.75
12791;BME280;6459;42.678;23.310;2022-08-03T01:35:57;53941.78;;;-144.00;55.18
12791;BME280;6459;42.678;23.310;2022-08-03T01:38:29;53897.97;;;-144.00;54.82
12791;BME280;6459;42.678;23.310;2022-08-03T01:41:03;53921.88;;;-144.00;55.14
12791;BME280;6459;42.678;23.310;2022-08-03T01:43:33;53967.69;;;-144.00;55.42
12791;BME280;6459;42.678;23.310;2022-08-03T01:46:24;53957.72;;;-144.00;55.29
12791;BME280;6459;42.678;23.310;2022-08-03T01:48:53;53943.78;;;-144.00;55.24
12791;BME280;6459;42.678;23.310;2022-08-03T01:51:23;53937.81;;;-144.00;54.85
12791;BME280;6459;42.678;23.310;2022-08-03T01:54:11;53943.78;;;-144.00;55.08
12791;BME280;6459;42.678;23.310;2022-08-03T01:56:42;53937.81;;;-144.00;55.14
12791;BME280;6459;42.678;23.310;2022-08-03T01:59:13;53947.75;;;-144.00;55.44
12791;BME280;6459;42.678;23.310;2022-08-03T02:01:45;53953.75;;;-144.00;55.59
12791;BME280;6459;42.678;23.310;2022-08-03T02:04:37;53961.72;;;-144.00;55.88
12791;BME280;6459;42.678;23.310;2022-08-03T02:07:07;53905.94;;;-144.00;55.94
12791;BME280;6459;42.678;23.310;2022-08-03T02:09:37;53973.66;;;-144.00;55.96
12791;BME280;6459;42.678;23.310;2022-08-03T02:12:07;53953.75;;;-144.00;56.09
12791;BME280;6459;42.678;23.310;2022-08-03T02:14:37;53888.00;;;-144.00;56.09
12791;BME280;6459;42.678;23.310;2022-08-03T02:17:08;53941.78;;;-144.00;56.20
12791;BME280;6459;42.678;23.310;2022-08-03T02:19:37;53927.84;;;-144.00;56.35
12791;BME280;6459;42.678;23.310;2022-08-03T02:22:09;53937.81;;;-144.00;56.41
12791;BME280;6459;42.678;23.310;2022-08-03T02:27:35;53991.59;;;-144.00;56.24
12791;BME280;6459;42.678;23.310;2022-08-03T02:30:10;53955.72;;;-144.00;56.32
12791;BME280;6459;42.678;23.310;2022-08-03T02:32:43;53959.72;;;-144.00;56.57
12791;BME280;6459;42.678;23.310;2022-08-03T02:35:16;53997.56;;;-144.00;56.67
12791;BME280;6459;42.678;23.310;2022-08-03T02:37:50;53977.66;;;-144.00;57.31
12791;BME280;6459;42.678;23.310;2022-08-03T02:40:20;53989.59;;;-144.00;57.69
12791;BME280;6459;42.678;23.310;2022-08-03T02:42:52;53987.59;;;-144.00;58.11
12791;BME280;6459;42.678;23.310;2022-08-03T02:45:22;53973.66;;;-144.00;58.01
12791;BME280;6459;42.678;23.310;2022-08-03T02:47:55;53931.81;;;-144.00;57.94
12791;BME280;6459;42.678;23.310;2022-08-03T02:50:25;53963.69;;;-144.00;57.82
12791;BME280;6459;42.678;23.310;2022-08-03T02:52:56;53993.59;;;-144.00;57.74
12791;BME280;6459;42.678;23.310;2022-08-03T02:55:27;53985.63;;;-144.00;57.48
12791;BME280;6459;42.678;23.310;2022-08-03T02:57:57;53991.59;;;-144.00;56.50
12791;BME280;6459;42.678;23.310;2022-08-03T03:00:27;53945.78;;;-144.00;55.49
12791;BME280;6459;42.678;23.310;2022-08-03T03:02:59;53953.75;;;-144.00;55.07
12791;BME280;6459;42.678;23.310;2022-08-03T03:05:29;53953.75;;;-144.00;55.42
12791;BME280;6459;42.678;23.310;2022-08-03T03:08:19;53997.56;;;-144.00;55.97
12791;BME280;6459;42.678;23.310;2022-08-03T03:10:55;53949.75;;;-144.00;56.06
12791;BME280;6459;42.678;23.310;2022-08-03T03:13:34;53967.69;;;-144.00;55.72
12791;BME280;6459;42.678;23.310;2022-08-03T03:16:11;53971.66;;;-144.00;56.20
12791;BME280;6459;42.678;23.310;2022-08-03T03:18:42;53969.69;;;-144.00;56.73
12791;BME280;6459;42.678;23.310;2022-08-03T03:21:12;53961.72;;;-144.00;56.78
12791;BME280;6459;42.678;23.310;2022-08-03T03:23:44;53963.69;;;-144.00;56.52
12791;BME280;6459;42.678;23.310;2022-08-03T03:26:14;53973.66;;;-144.00;56.89
12791;BME280;6459;42.678;23.310;2022-08-03T03:28:42;53949.75;;;-144.00;57.16
12791;BME280;6459;42.678;23.310;2022-08-03T03:31:11;53969.69;;;-144.00;57.16
12791;BME280;6459;42.678;23.310;2022-08-03T03:33:41;53973.66;;;-144.00;57.27
12791;BME280;6459;42.678;23.310;2022-08-03T03:36:10;53937.81;;;-144.00;57.37
12791;BME280;6459;42.678;23.310;2022-08-03T03:38:38;53949.75;;;-144.00;57.21
12791;BME280;6459;42.678;23.310;2022-08-03T03:41:06;53979.63;;;-144.00;57.28
12791;BME280;6459;42.678;23.310;2022-08-03T03:43:35;53961.72;;;-144.00;57.47
12791;BME280;6459;42.678;23.310;2022-08-03T03:46:10;53993.59;;;-144.00;57.83
12791;BME280;6459;42.678;23.310;2022-08-03T03:48:41;53989.59;;;-144.00;57.80
12791;BME280;6459;42.678;23.310;2022-08-03T03:51:10;53997.56;;;-144.00;57.84
12791;BME280;6459;42.678;23.310;2022-08-03T03:53:38;53953.75;;;-144.00;57.83
12791;BME280;6459;42.678;23.310;2022-08-03T03:56:06;53969.69;;;-144.00;57.96
12791;BME280;6459;42.678;23.310;2022-08-03T03:58:34;53967.69;;;-144.00;57.62
12791;BME280;6459;42.678;23.310;2022-08-03T04:01:02;53985.63;;;-144.00;57.40
12791;BME280;6459;42.678;23.310;2022-08-03T04:03:45;53963.69;;;-144.00;57.33
12791;BME280;6459;42.678;23.310;2022-08-03T04:06:21;53991.59;;;-144.00;57.59
12791;BME280;6459;42.678;23.310;2022-08-03T04:09:07;53995.56;;;-144.00;57.64
12791;BME280;6459;42.678;23.310;2022-08-03T04:12:00;53969.69;;;-144.00;57.67
12791;BME280;6459;42.678;23.310;2022-08-03T04:14:32;53969.69;;;-144.00;57.59
12791;BME280;6459;42.678;23.310;2022-08-03T04:17:03;53951.75;;;-144.00;57.32
12791;BME280;6459;42.678;23.310;2022-08-03T04:19:46;53961.72;;;-144.00;57.07
12791;BME280;6459;42.678;23.310;2022-08-03T04:22:21;53967.69;;;-144.00;56.93
12791;BME280;6459;42.678;23.310;2022-08-03T04:24:55;53975.66;;;-144.00;56.93
12791;BME280;6459;42.678;23.310;2022-08-03T04:27:30;53991.59;;;-144.00;56.51
12791;BME280;6459;42.678;23.310;2022-08-03T04:30:02;53981.63;;;-144.00;56.59
12791;BME280;6459;42.678;23.310;2022-08-03T04:32:31;53961.72;;;-144.00;56.32
12791;BME280;6459;42.678;23.310;2022-08-03T04:35:01;53957.72;;;-144.00;55.86
12791;BME280;6459;42.678;23.310;2022-08-03T04:37:38;53963.69;;;-144.00;55.19
12791;BME280;6459;42.678;23.310;2022-08-03T04:40:12;53957.72;;;-144.00;54.82
12791;BME280;6459;42.678;23.310;2022-08-03T04:42:42;53917.88;;;-144.00;54.72
12791;BME280;6459;42.678;23.310;2022-08-03T04:45:12;53927.84;;;-144.00;54.59
12791;BME280;6459;42.678;23.310;2022-08-03T04:47:42;53945.78;;;-144.00;54.41
12791;BME280;6459;42.678;23.310;2022-08-03T04:50:12;53927.84;;;-144.00;54.66
12791;BME280;6459;42.678;23.310;2022-08-03T04:52:46;53858.13;;;-144.00;55.05
12791;BME280;6459;42.678;23.310;2022-08-03T04:55:24;53792.38;;;-144.00;50.46
12791;BME280;6459;42.678;23.310;2022-08-03T04:57:53;53726.63;;;-144.00;46.76
12791;BME280;6459;42.678;23.310;2022-08-03T05:00:21;53640.97;;;-144.00;43.06
12791;BME280;6459;42.678;23.310;2022-08-03T05:02:50;53599.16;;;-144.00;39.80
12791;BME280;6459;42.678;23.310;2022-08-03T05:05:21;53553.31;;;-144.00;37.71
12791;BME280;6459;42.678;23.310;2022-08-03T05:07:50;53521.44;;;-144.00;36.82
12791;BME280;6459;42.678;23.310;2022-08-03T05:10:20;53463.69;;;-144.00;35.50
12791;BME280;6459;42.678;23.310;2022-08-03T05:12:49;53423.84;;;-144.00;34.77
12791;BME280;6459;42.678;23.310;2022-08-03T05:15:20;53451.72;;;-144.00;33.87
12791;BME280;6459;42.678;23.310;2022-08-03T05:17:48;53429.81;;;-144.00;33.59
12791;BME280;6459;42.678;23.310;2022-08-03T05:20:17;53459.69;;;-144.00;33.34
12791;BME280;6459;42.678;23.310;2022-08-03T05:22:47;53364.09;;;-144.00;32.79
12791;BME280;6459;42.678;23.310;2022-08-03T05:25:15;53362.09;;;-144.00;32.40
12791;BME280;6459;42.678;23.310;2022-08-03T05:27:47;53370.06;;;-144.00;31.76
12791;BME280;6459;42.678;23.310;2022-08-03T05:30:15;53376.03;;;-144.00;31.88
12791;BME280;6459;42.678;23.310;2022-08-03T05:33:00;53401.94;;;-144.00;31.52
12791;BME280;6459;42.678;23.310;2022-08-03T05:35:28;53364.09;;;-144.00;31.58
12791;BME280;6459;42.678;23.310;2022-08-03T05:38:18;53465.69;;;-144.00;33.42
12791;BME280;6459;42.678;23.310;2022-08-03T05:40:54;53573.25;;;-144.00;35.49
12791;BME280;6459;42.678;23.310;2022-08-03T05:43:42;53613.09;;;-144.00;36.93
12791;BME280;6459;42.678;23.310;2022-08-03T05:46:10;53664.88;;;-144.00;38.20
12791;BME280;6459;42.678;23.310;2022-08-03T05:48:39;53623.03;;;-144.00;39.35
12791;BME280;6459;42.678;23.310;2022-08-03T05:51:09;53676.84;;;-144.00;40.22
12791;BME280;6459;42.678;23.310;2022-08-03T05:53:40;53728.63;;;-144.00;41.43
12791;BME280;6459;42.678;23.310;2022-08-03T05:56:08;53730.63;;;-144.00;42.30
12791;BME280;6459;42.678;23.310;2022-08-03T05:58:40;53748.53;;;-144.00;42.49
12791;BME280;6459;42.678;23.310;2022-08-03T06:01:09;53774.44;;;-144.00;43.29
12791;BME280;6459;42.678;23.310;2022-08-03T06:03:38;53782.41;;;-144.00;43.85
12791;BME280;6459;42.678;23.310;2022-08-03T06:06:06;53802.34;;;-144.00;44.03
12791;BME280;6459;42.678;23.310;2022-08-03T06:08:35;53748.53;;;-144.00;44.38
12791;BME280;6459;42.678;23.310;2022-08-03T06:11:05;53784.41;;;-144.00;44.11
12791;BME280;6459;42.678;23.310;2022-08-03T06:13:34;53774.44;;;-144.00;43.86
12791;BME280;6459;42.678;23.310;2022-08-03T06:16:02;53774.44;;;-144.00;44.36
12791;BME280;6459;42.678;23.310;2022-08-03T06:18:31;53772.44;;;-144.00;44.21
12791;BME280;6459;42.678;23.310;2022-08-03T06:20:59;53794.38;;;-144.00;44.48
12791;BME280;6459;42.678;23.310;2022-08-03T06:23:40;53756.50;;;-144.00;44.21
12791;BME280;6459;42.678;23.310;2022-08-03T06:26:26;53774.44;;;-144.00;44.54
12791;BME280;6459;42.678;23.310;2022-08-03T06:28:55;53774.44;;;-144.00;44.72
12791;BME280;6459;42.678;23.310;2022-08-03T06:31:25;53770.47;;;-144.00;44.45
12791;BME280;6459;42.678;23.310;2022-08-03T06:34:01;53748.53;;;-144.00;44.13
12791;BME280;6459;42.678;23.310;2022-08-03T06:36:50;53798.34;;;-144.00;44.37
12791;BME280;6459;42.678;23.310;2022-08-03T06:39:19;53810.31;;;-144.00;44.92
12791;BME280;6459;42.678;23.310;2022-08-03T06:41:51;53794.38;;;-144.00;44.71
12791;BME280;6459;42.678;23.310;2022-08-03T06:44:19;53840.19;;;-144.00;45.19
12791;BME280;6459;42.678;23.310;2022-08-03T06:46:48;53792.38;;;-144.00;45.15
12791;BME280;6459;42.678;23.310;2022-08-03T06:49:17;53768.47;;;-144.00;45.06
12791;BME280;6459;42.678;23.310;2022-08-03T06:51:46;53752.53;;;-144.00;44.54
12791;BME280;6459;42.678;23.310;2022-08-03T06:54:34;53738.59;;;-144.00;44.26
12791;BME280;6459;42.678;23.310;2022-08-03T06:57:05;53734.59;;;-144.00;44.00
12791;BME280;6459;42.678;23.310;2022-08-03T06:59:35;53752.53;;;-144.00;44.53
12791;BME280;6459;42.678;23.310;2022-08-03T07:02:23;53762.50;;;-144.00;44.48
12791;BME280;6459;42.678;23.310;2022-08-03T07:04:54;53778.44;;;-144.00;44.11
12791;BME280;6459;42.678;23.310;2022-08-03T07:07:22;53744.56;;;-144.00;43.64
12791;BME280;6459;42.678;23.310;2022-08-03T07:09:50;53740.56;;;-144.00;43.42
12791;BME280;6459;42.678;23.310;2022-08-03T07:12:26;53770.47;;;-144.00;43.29
12791;BME280;6459;42.678;23.310;2022-08-03T07:14:55;53754.53;;;-144.00;43.34
12791;BME280;6459;42.678;23.310;2022-08-03T07:17:28;53774.44;;;-144.00;43.09
12791;BME280;6459;42.678;23.310;2022-08-03T07:19:57;53776.44;;;-144.00;43.14
12791;BME280;6459;42.678;23.310;2022-08-03T07:22:25;53758.50;;;-144.00;43.24
12791;BME280;6459;42.678;23.310;2022-08-03T07:24:54;53738.59;;;-144.00;43.02
12791;BME280;6459;42.678;23.310;2022-08-03T07:27:24;53738.59;;;-144.00;42.62
12791;BME280;6459;42.678;23.310;2022-08-03T07:29:55;53730.63;;;-144.00;42.71
12791;BME280;6459;42.678;23.310;2022-08-03T07:32:24;53754.53;;;-144.00;42.92
12791;BME280;6459;42.678;23.310;2022-08-03T07:34:54;53736.59;;;-144.00;42.70
12791;BME280;6459;42.678;23.310;2022-08-03T07:37:27;53714.69;;;-144.00;42.78
12791;BME280;6459;42.678;23.310;2022-08-03T07:39:55;53786.41;;;-144.00;43.04
12791;BME280;6459;42.678;23.310;2022-08-03T07:42:25;53744.56;;;-144.00;42.37
12791;BME280;6459;42.678;23.310;2022-08-03T07:44:53;53748.53;;;-144.00;42.17
12791;BME280;6459;42.678;23.310;2022-08-03T07:47:23;53754.53;;;-144.00;42.49
12791;BME280;6459;42.678;23.310;2022-08-03T07:50:02;53738.59;;;-144.00;42.32
12791;BME280;6459;42.678;23.310;2022-08-03T07:52:30;53750.53;;;-144.00;41.94
12791;BME280;6459;42.678;23.310;2022-08-03T07:55:20;53758.50;;;-144.00;41.89
12791;BME280;6459;42.678;23.310;2022-08-03T07:58:00;53750.53;;;-144.00;41.07
12791;BME280;6459;42.678;23.310;2022-08-03T08:00:29;53690.78;;;-144.00;40.37
12791;BME280;6459;42.678;23.310;2022-08-03T08:02:58;53710.69;;;-144.00;40.49
12791;BME280;6459;42.678;23.310;2022-08-03T08:05:27;53728.63;;;-144.00;40.26
12791;BME280;6459;42.678;23.310;2022-08-03T08:07:56;53682.81;;;-144.00;39.63
12791;BME280;6459;42.678;23.310;2022-08-03T08:10:24;53682.81;;;-144.00;39.57
12791;BME280;6459;42.678;23.310;2022-08-03T08:12:53;53662.88;;;-144.00;38.98
12791;BME280;6459;42.678;23.310;2022-08-03T08:15:23;53692.78;;;-144.00;38.84
12791;BME280;6459;42.678;23.310;2022-08-03T08:17:53;53698.75;;;-144.00;38.85
12791;BME280;6459;42.678;23.310;2022-08-03T08:20:23;53710.69;;;-144.00;39.07
12791;BME280;6459;42.678;23.310;2022-08-03T08:22:54;53698.75;;;-144.00;39.15
12791;BME280;6459;42.678;23.310;2022-08-03T08:25:26;53682.81;;;-144.00;38.60
12791;BME280;6459;42.678;23.310;2022-08-03T08:27:54;53678.81;;;-144.00;38.67
12791;BME280;6459;42.678;23.310;2022-08-03T08:30:44;53670.84;;;-144.00;38.73
12791;BME280;6459;42.678;23.310;2022-08-03T08:33:13;53668.88;;;-144.00;38.58
12791;BME280;6459;42.678;23.310;2022-08-03T08:35:48;53658.91;;;-144.00;38.43
12791;BME280;6459;42.678;23.310;2022-08-03T08:38:17;53619.06;;;-144.00;37.80
12791;BME280;6459;42.678;23.310;2022-08-03T08:40:45;53650.94;;;-144.00;37.72
12791;BME280;6459;42.678;23.310;2022-08-03T08:43:14;53666.88;;;-144.00;37.48
12791;BME280;6459;42.678;23.310;2022-08-03T08:45:48;53644.97;;;-144.00;37.25
12791;BME280;6459;42.678;23.310;2022-08-03T08:48:21;53646.94;;;-144.00;37.54
12791;BME280;6459;42.678;23.310;2022-08-03T08:50:52;53646.94;;;-144.00;37.53
12791;BME280;6459;42.678;23.310;2022-08-03T08:53:21;53654.91;;;-144.00;36.85
12791;BME280;6459;42.678;23.310;2022-08-03T08:55:54;53674.84;;;-144.00;36.58
12791;BME280;6459;42.678;23.310;2022-08-03T08:58:28;53682.81;;;-144.00;36.17
12791;BME280;6459;42.678;23.310;2022-08-03T09:00:59;53648.94;;;-144.00;36.40
12791;BME280;6459;42.678;23.310;2022-08-03T09:03:27;53670.84;;;-144.00;37.03
12791;BME280;6459;42.678;23.310;2022-08-03T09:05:58;53658.91;;;-144.00;36.54
12791;BME280;6459;42.678;23.310;2022-08-03T09:08:29;53627.03;;;-144.00;37.18
12791;BME280;6459;42.678;23.310;2022-08-03T09:10:58;53627.03;;;-144.00;37.12
12791;BME280;6459;42.678;23.310;2022-08-03T09:13:31;53613.09;;;-144.00;36.90
12791;BME280;6459;42.678;23.310;2022-08-03T09:16:12;53587.19;;;-144.00;36.26
12791;BME280;6459;42.678;23.310;2022-08-03T09:18:42;53609.09;;;-144.00;35.35
12791;BME280;6459;42.678;23.310;2022-08-03T09:21:19;53603.13;;;-144.00;35.33
12791;BME280;6459;42.678;23.310;2022-08-03T09:24:04;53609.09;;;-144.00;34.87
12791;BME280;6459;42.678;23.310;2022-08-03T09:26:51;53567.28;;;-144.00;35.02
12791;BME280;6459;42.678;23.310;2022-08-03T09:29:21;53583.22;;;-144.00;34.61
12791;BME280;6459;42.678;23.310;2022-08-03T09:31:59;53587.19;;;-144.00;34.32
12791;BME280;6459;42.678;23.310;2022-08-03T09:34:29;53581.22;;;-144.00;34.16
12791;BME280;6459;42.678;23.310;2022-08-03T09:36:57;53563.28;;;-144.00;33.99
12791;BME280;6459;42.678;23.310;2022-08-03T09:39:26;53595.16;;;-144.00;33.75
12791;BME280;6459;42.678;23.310;2022-08-03T09:42:09;53527.44;;;-144.00;33.68
12791;BME280;6459;42.678;23.310;2022-08-03T09:44:42;53553.31;;;-144.00;33.73
12791;BME280;6459;42.678;23.310;2022-08-03T09:47:13;53567.28;;;-144.00;33.63
12791;BME280;6459;42.678;23.310;2022-08-03T09:49:56;53563.28;;;-144.00;33.52
12791;BME280;6459;42.678;23.310;2022-08-03T09:52:32;53545.34;;;-144.00;33.27
12791;BME280;6459;42.678;23.310;2022-08-03T09:55:15;53557.31;;;-144.00;33.46
12791;BME280;6459;42.678;23.310;2022-08-03T09:58:06;53511.50;;;-144.00;33.24
12791;BME280;6459;42.678;23.310;2022-08-03T10:00:51;53539.38;;;-144.00;33.54
12791;BME280;6459;42.678;23.310;2022-08-03T10:03:23;53557.31;;;-144.00;33.82
12791;BME280;6459;42.678;23.310;2022-08-03T10:05:52;53567.28;;;-144.00;33.41
12791;BME280;6459;42.678;23.310;2022-08-03T10:08:25;53559.31;;;-144.00;33.21
12791;BME280;6459;42.678;23.310;2022-08-03T10:10:54;53567.28;;;-144.00;33.44
12791;BME280;6459;42.678;23.310;2022-08-03T10:13:24;53555.31;;;-144.00;33.42
12791;BME280;6459;42.678;23.310;2022-08-03T10:15:52;53563.28;;;-144.00;33.38
12791;BME280;6459;42.678;23.310;2022-08-03T10:18:42;53607.09;;;-144.00;33.37
12791;BME280;6459;42.678;23.310;2022-08-03T10:21:14;53575.25;;;-144.00;33.37
12791;BME280;6459;42.678;23.310;2022-08-03T10:23:43;53527.44;;;-144.00;33.47
12791;BME280;6459;42.678;23.310;2022-08-03T10:26:15;53547.34;;;-144.00;33.49
12791;BME280;6459;42.678;23.310;2022-08-03T10:28:48;53539.38;;;-144.00;33.62
12791;BME280;6459;42.678;23.310;2022-08-03T10:31:17;53569.25;;;-144.00;33.57
12791;BME280;6459;42.678;23.310;2022-08-03T10:33:51;53539.38;;;-144.00;33.62
12791;BME280;6459;42.678;23.310;2022-08-03T10:36:23;53537.38;;;-144.00;33.11
12791;BME280;6459;42.678;23.310;2022-08-03T10:38:54;53553.31;;;-144.00;32.93
12791;BME280;6459;42.678;23.310;2022-08-03T10:41:25;53563.28;;;-144.00;33.15
12791;BME280;6459;42.678;23.310;2022-08-03T10:43:57;53553.31;;;-144.00;33.42
12791;BME280;6459;42.678;23.310;2022-08-03T10:46:26;53529.41;;;-144.00;33.52
12791;BME280;6459;42.678;23.310;2022-08-03T10:48:57;53553.31;;;-144.00;33.26
12791;BME280;6459;42.678;23.310;2022-08-03T10:51:27;53549.34;;;-144.00;33.46
12791;BME280;6459;42.678;23.310;2022-08-03T10:54:37;53547.34;;;-144.00;34.05
12791;BME280;6459;42.678;23.310;2022-08-03T10:57:45;53579.22;;;-144.00;33.73
12791;BME280;6459;42.678;23.310;2022-08-03T11:00:16;53569.25;;;-144.00;34.15
12791;BME280;6459;42.678;23.310;2022-08-03T11:03:09;53579.22;;;-144.00;34.04
12791;BME280;6459;42.678;23.310;2022-08-03T11:05:44;53559.31;;;-144.00;33.97
12791;BME280;6459;42.678;23.310;2022-08-03T11:08:26;53569.25;;;-144.00;34.20
12791;BME280;6459;42.678;23.310;2022-08-03T11:10:58;53583.22;;;-144.00;34.11
12791;BME280;6459;42.678;23.310;2022-08-03T11:13:56;53583.22;;;-144.00;34.12
12791;BME280;6459;42.678;23.310;2022-08-03T11:16:29;53567.28;;;-144.00;33.78
12791;BME280;6459;42.678;23.310;2022-08-03T11:19:01;53531.41;;;-144.00;33.85
12791;BME280;6459;42.678;23.310;2022-08-03T11:21:58;53537.38;;;-144.00;33.23
12791;BME280;6459;42.678;23.310;2022-08-03T11:24:58;53579.22;;;-144.00;32.94
12791;BME280;6459;42.678;23.310;2022-08-03T11:27:29;53549.34;;;-144.00;33.37
12791;BME280;6459;42.678;23.310;2022-08-03T11:30:01;53579.22;;;-144.00;33.27
12791;BME280;6459;42.678;23.310;2022-08-03T11:32:59;53541.38;;;-144.00;33.44
12791;BME280;6459;42.678;23.310;2022-08-03T11:35:30;53559.31;;;-144.00;33.35
12791;BME280;6459;42.678;23.310;2022-08-03T11:38:08;53551.34;;;-144.00;33.22
12791;BME280;6459;42.678;23.310;2022-08-03T11:40:40;53527.44;;;-144.00;32.72
12791;BME280;6459;42.678;23.310;2022-08-03T11:43:10;53563.28;;;-144.00;32.32
12791;BME280;6459;42.678;23.310;2022-08-03T11:46:03;53511.50;;;-144.00;32.93
12791;BME280;6459;42.678;23.310;2022-08-03T11:48:34;53547.34;;;-144.00;33.25
12791;BME280;6459;42.678;23.310;2022-08-03T11:51:04;53523.44;;;-144.00;32.56
12791;BME280;6459;42.678;23.310;2022-08-03T11:53:33;53505.53;;;-144.00;32.46
12791;BME280;6459;42.678;23.310;2022-08-03T11:56:07;53533.41;;;-144.00;32.19
12791;BME280;6459;42.678;23.310;2022-08-03T11:58:46;53529.41;;;-144.00;32.29
12791;BME280;6459;42.678;23.310;2022-08-03T12:01:36;53543.38;;;-144.00;32.64
12791;BME280;6459;42.678;23.310;2022-08-03T12:04:05;53539.38;;;-144.00;32.84
12791;BME280;6459;42.678;23.310;2022-08-03T12:06:33;53525.44;;;-144.00;32.52
12791;BME280;6459;42.678;23.310;2022-08-03T12:09:20;53545.34;;;-144.00;32.57
12791;BME280;6459;42.678;23.310;2022-08-03T12:11:49;53543.38;;;-144.00;32.65
12791;BME280;6459;42.678;23.310;2022-08-03T12:14:27;53509.50;;;-144.00;32.73
12791;BME280;6459;42.678;23.310;2022-08-03T12:17:17;53519.47;;;-144.00;32.73
12791;BME280;6459;42.678;23.310;2022-08-03T12:19:47;53507.50;;;-144.00;32.89
12791;BME280;6459;42.678;23.310;2022-08-03T12:22:15;53509.50;;;-144.00;32.99
12791;BME280;6459;42.678;23.310;2022-08-03T12:24:44;53533.41;;;-144.00;33.12
12791;BME280;6459;42.678;23.310;2022-08-03T12:27:22;53535.41;;;-144.00;33.26
12791;BME280;6459;42.678;23.310;2022-08-03T12:29:50;53535.41;;;-144.00;32.74
12791;BME280;6459;42.678;23.310;2022-08-03T12:32:26;53515.47;;;-144.00;32.68
12791;BME280;6459;42.678;23.310;2022-08-03T12:34:56;53483.59;;;-144.00;32.61
12791;BME280;6459;42.678;23.310;2022-08-03T12:37:27;53491.56;;;-144.00;32.48
12791;BME280;6459;42.678;23.310;2022-08-03T12:39:58;53505.53;;;-144.00;32.65
12791;BME280;6459;42.678;23.310;2022-08-03T12:42:37;53519.47;;;-144.00;32.59
12791;BME280;6459;42.678;23.310;2022-08-03T12:45:19;53489.59;;;-144.00;32.45
12791;BME280;6459;42.678;23.310;2022-08-03T12:47:54;53507.50;;;-144.00;32.51
12791;BME280;6459;42.678;23.310;2022-08-03T12:50:24;53521.44;;;-144.00;32.56
12791;BME280;6459;42.678;23.310;2022-08-03T12:52:53;53523.44;;;-144.00;32.37
12791;BME280;6459;42.678;23.310;2022-08-03T12:55:22;53487.59;;;-144.00;32.29
12791;BME280;6459;42.678;23.310;2022-08-03T12:57:51;53507.50;;;-144.00;31.97
12791;BME280;6459;42.678;23.310;2022-08-03T13:00:19;53527.44;;;-144.00;32.21
12791;BME280;6459;42.678;23.310;2022-08-03T13:03:02;53503.53;;;-144.00;32.36
12791;BME280;6459;42.678;23.310;2022-08-03T13:05:52;53515.47;;;-144.00;32.10
12791;BME280;6459;42.678;23.310;2022-08-03T13:08:23;53487.59;;;-144.00;32.25
12791;BME280;6459;42.678;23.310;2022-08-03T13:10:52;53507.50;;;-144.00;31.63
12791;BME280;6459;42.678;23.310;2022-08-03T13:13:38;53499.53;;;-144.00;31.77
12791;BME280;6459;42.678;23.310;2022-08-03T13:16:07;53479.63;;;-144.00;31.33
12791;BME280;6459;42.678;23.310;2022-08-03T13:18:46;53489.59;;;-144.00;30.54
12791;BME280;6459;42.678;23.310;2022-08-03T13:21:15;53507.50;;;-144.00;30.44